sensor_id;sensor_type;location;lat;lon;timestamp;pressure;altitude;pressure_sealevel;temperature
23208;BMP180;11773;52.570;13.052;2022-07-18T00:01:32;102278.00;;;23.00
23208;BMP180;11773;52.570;13.052;2022-07-18T00:04:04;102274.00;;;23.00
23208;BMP180;11773;52.570;13.052;2022-07-18T00:06:33;102275.00;;;23.00
23208;BMP180;11773;52.570;13.052;2022-07-18T00:09:04;102271.00;;;22.90
23208;BMP180;11773;52.570;13.052;2022-07-18T00:11:34;102276.00;;;22.90
23208;BMP180;11773;52.570;13.052;2022-07-18T00:14:04;102270.00;;;22.90
23208;BMP180;11773;52.570;13.052;2022-07-18T00:16:33;102276.00;;;22.90
23208;BMP180;11773;52.570;13.052;2022-07-18T00:19:04;102294.00;;;22.90
23208;BMP180;11773;52.570;13.052;2022-07-18T00:21:34;102278.00;;;22.90
23208;BMP180;11773;52.570;13.052;2022-07-18T00:24:04;102277.00;;;22.80
23208;BMP180;11773;52.570;13.052;2022-07-18T00:26:34;102276.00;;;22.80
23208;BMP180;11773;52.570;13.052;2022-07-18T00:29:03;102296.00;;;22.80
23208;BMP180;11773;52.570;13.052;2022-07-18T00:31:35;102282.00;;;22.80
23208;BMP180;11773;52.570;13.052;2022-07-18T00:34:05;102288.00;;;22.80
23208;BMP180;11773;52.570;13.052;2022-07-18T00:36:34;102296.00;;;22.80
23208;BMP180;11773;52.570;13.052;2022-07-18T00:39:04;102296.00;;;22.80
23208;BMP180;11773;52.570;13.052;2022-07-18T00:41:33;102282.00;;;22.80
23208;BMP180;11773;52.570;13.052;2022-07-18T00:44:04;102299.00;;;22.80
23208;BMP180;11773;52.570;13.052;2022-07-18T00:46:33;102288.00;;;22.80
23208;BMP180;11773;52.570;13.052;2022-07-18T00:49:03;102295.00;;;22.80
23208;BMP180;11773;52.570;13.052;2022-07-18T00:51:32;102295.00;;;22.80
23208;BMP180;11773;52.570;13.052;2022-07-18T00:54:04;102297.00;;;22.80
23208;BMP180;11773;52.570;13.052;2022-07-18T00:56:34;102286.00;;;22.70
23208;BMP180;11773;52.570;13.052;2022-07-18T00:59:05;102293.00;;;22.70
23208;BMP180;11773;52.570;13.052;2022-07-18T01:01:35;102287.00;;;22.70
23208;BMP180;11773;52.570;13.052;2022-07-18T01:04:21;102289.00;;;22.70
23208;BMP180;11773;52.570;13.052;2022-07-18T01:06:51;102280.00;;;22.70
23208;BMP180;11773;52.570;13.052;2022-07-18T01:09:21;102294.00;;;22.70
23208;BMP180;11773;52.570;13.052;2022-07-18T01:11:51;102281.00;;;22.70
23208;BMP180;11773;52.570;13.052;2022-07-18T01:14:20;102291.00;;;22.70
23208;BMP180;11773;52.570;13.052;2022-07-18T01:16:50;102289.00;;;22.60
23208;BMP180;11773;52.570;13.052;2022-07-18T01:19:20;102284.00;;;22.60
23208;BMP180;11773;52.570;13.052;2022-07-18T01:21:50;102273.00;;;22.60
23208;BMP180;11773;52.570;13.052;2022-07-18T01:24:19;102283.00;;;22.50
23208;BMP180;11773;52.570;13.052;2022-07-18T01:26:49;102274.00;;;22.50
23208;BMP180;11773;52.570;13.052;2022-07-18T01:29:18;102277.00;;;22.50
23208;BMP180;11773;52.570;13.052;2022-07-18T01:31:48;102276.00;;;22.40
23208;BMP180;11773;52.570;13.052;2022-07-18T01:34:21;102293.00;;;22.40
23208;BMP180;11773;52.570;13.052;2022-07-18T01:36:51;102270.00;;;22.40
23208;BMP180;11773;52.570;13.052;2022-07-18T01:39:20;102273.00;;;22.30
23208;BMP180;11773;52.570;13.052;2022-07-18T01:42:06;102291.00;;;22.30
23208;BMP180;11773;52.570;13.052;2022-07-18T01:44:37;102277.00;;;22.20
23208;BMP180;11773;52.570;13.052;2022-07-18T01:47:09;102276.00;;;22.20
23208;BMP180;11773;52.570;13.052;2022-07-18T01:49:40;102282.00;;;22.20
23208;BMP180;11773;52.570;13.052;2022-07-18T01:52:10;102293.00;;;22.20
23208;BMP180;11773;52.570;13.052;2022-07-18T01:54:39;102281.00;;;22.20
23208;BMP180;11773;52.570;13.052;2022-07-18T01:57:09;102270.00;;;22.10
23208;BMP180;11773;52.570;13.052;2022-07-18T01:59:39;102276.00;;;22.10
23208;BMP180;11773;52.570;13.052;2022-07-18T02:02:08;102272.00;;;22.10
23208;BMP180;11773;52.570;13.052;2022-07-18T02:04:38;102275.00;;;22.10
23208;BMP180;11773;52.570;13.052;2022-07-18T02:07:37;102274.00;;;22.00
23208;BMP180;11773;52.570;13.052;2022-07-18T02:10:09;102272.00;;;22.00
23208;BMP180;11773;52.570;13.052;2022-07-18T02:12:40;102261.00;;;21.90
23208;BMP180;11773;52.570;13.052;2022-07-18T02:15:12;102258.00;;;21.90
23208;BMP180;11773;52.570;13.052;2022-07-18T02:17:43;102263.00;;;21.90
23208;BMP180;11773;52.570;13.052;2022-07-18T02:20:14;102267.00;;;21.90
23208;BMP180;11773;52.570;13.052;2022-07-18T02:22:44;102267.00;;;21.80
23208;BMP180;11773;52.570;13.052;2022-07-18T02:25:14;102265.00;;;21.80
23208;BMP180;11773;52.570;13.052;2022-07-18T02:27:44;102284.00;;;21.80
23208;BMP180;11773;52.570;13.052;2022-07-18T02:30:14;102271.00;;;21.80
23208;BMP180;11773;52.570;13.052;2022-07-18T02:32:43;102273.00;;;21.70
23208;BMP180;11773;52.570;13.052;2022-07-18T02:35:13;102278.00;;;21.70
23208;BMP180;11773;52.570;13.052;2022-07-18T02:37:43;102274.00;;;21.70
23208;BMP180;11773;52.570;13.052;2022-07-18T02:40:12;102276.00;;;21.60
23208;BMP180;11773;52.570;13.052;2022-07-18T02:42:42;102275.00;;;21.60
23208;BMP180;11773;52.570;13.052;2022-07-18T02:45:12;102266.00;;;21.60
23208;BMP180;11773;52.570;13.052;2022-07-18T02:47:41;102265.00;;;21.60
23208;BMP180;11773;52.570;13.052;2022-07-18T02:50:12;102265.00;;;21.50
23208;BMP180;11773;52.570;13.052;2022-07-18T02:52:42;102264.00;;;21.50
23208;BMP180;11773;52.570;13.052;2022-07-18T02:55:13;102257.00;;;21.50
23208;BMP180;11773;52.570;13.052;2022-07-18T02:57:44;102270.00;;;21.40
23208;BMP180;11773;52.570;13.052;2022-07-18T03:00:16;102255.00;;;21.40
23208;BMP180;11773;52.570;13.052;2022-07-18T03:02:46;102248.00;;;21.30
23208;BMP180;11773;52.570;13.052;2022-07-18T03:05:16;102251.00;;;21.20
23208;BMP180;11773;52.570;13.052;2022-07-18T03:07:45;102261.00;;;21.20
23208;BMP180;11773;52.570;13.052;2022-07-18T03:10:15;102251.00;;;21.20
23208;BMP180;11773;52.570;13.052;2022-07-18T03:12:44;102257.00;;;21.20
23208;BMP180;11773;52.570;13.052;2022-07-18T03:15:14;102250.00;;;21.10
23208;BMP180;11773;52.570;13.052;2022-07-18T03:17:43;102244.00;;;21.10
23208;BMP180;11773;52.570;13.052;2022-07-18T03:20:13;102261.00;;;21.00
23208;BMP180;11773;52.570;13.052;2022-07-18T03:22:43;102251.00;;;21.00
23208;BMP180;11773;52.570;13.052;2022-07-18T03:25:12;102254.00;;;21.00
23208;BMP180;11773;52.570;13.052;2022-07-18T03:27:43;102263.00;;;20.90
23208;BMP180;11773;52.570;13.052;2022-07-18T03:30:13;102260.00;;;20.90
23208;BMP180;11773;52.570;13.052;2022-07-18T03:32:43;102247.00;;;20.80
23208;BMP180;11773;52.570;13.052;2022-07-18T03:35:14;102260.00;;;20.80
23208;BMP180;11773;52.570;13.052;2022-07-18T03:37:43;102248.00;;;20.80
23208;BMP180;11773;52.570;13.052;2022-07-18T03:40:13;102244.00;;;20.80
23208;BMP180;11773;52.570;13.052;2022-07-18T03:42:43;102249.00;;;20.70
23208;BMP180;11773;52.570;13.052;2022-07-18T03:45:12;102253.00;;;20.70
23208;BMP180;11773;52.570;13.052;2022-07-18T03:47:42;102264.00;;;20.70
23208;BMP180;11773;52.570;13.052;2022-07-18T03:50:11;102256.00;;;20.70
23208;BMP180;11773;52.570;13.052;2022-07-18T03:52:41;102247.00;;;20.60
23208;BMP180;11773;52.570;13.052;2022-07-18T03:55:10;102259.00;;;20.60
23208;BMP180;11773;52.570;13.052;2022-07-18T03:57:40;102255.00;;;20.60
23208;BMP180;11773;52.570;13.052;2022-07-18T04:00:13;102252.00;;;20.60
23208;BMP180;11773;52.570;13.052;2022-07-18T04:02:46;102250.00;;;20.50
23208;BMP180;11773;52.570;13.052;2022-07-18T04:05:16;102261.00;;;20.50
23208;BMP180;11773;52.570;13.052;2022-07-18T04:07:46;102261.00;;;20.50
23208;BMP180;11773;52.570;13.052;2022-07-18T04:10:16;102247.00;;;20.50
23208;BMP180;11773;52.570;13.052;2022-07-18T04:12:51;102252.00;;;20.50
23208;BMP180;11773;52.570;13.052;2022-07-18T04:15:24;102253.00;;;20.50
23208;BMP180;11773;52.570;13.052;2022-07-18T04:17:54;102255.00;;;20.50
23208;BMP180;11773;52.570;13.052;2022-07-18T04:20:24;102250.00;;;20.40
23208;BMP180;11773;52.570;13.052;2022-07-18T04:22:59;102252.00;;;20.40
23208;BMP180;11773;52.570;13.052;2022-07-18T04:25:43;102254.00;;;20.40
23208;BMP180;11773;52.570;13.052;2022-07-18T04:28:11;102250.00;;;20.40
23208;BMP180;11773;52.570;13.052;2022-07-18T04:30:43;102246.00;;;20.40
23208;BMP180;11773;52.570;13.052;2022-07-18T04:33:13;102246.00;;;20.40
23208;BMP180;11773;52.570;13.052;2022-07-18T04:35:43;102243.00;;;20.40
23208;BMP180;11773;52.570;13.052;2022-07-18T04:38:12;102256.00;;;20.50
23208;BMP180;11773;52.570;13.052;2022-07-18T04:40:42;102256.00;;;20.50
23208;BMP180;11773;52.570;13.052;2022-07-18T04:43:12;102256.00;;;20.50
23208;BMP180;11773;52.570;13.052;2022-07-18T04:45:41;102245.00;;;20.50
23208;BMP180;11773;52.570;13.052;2022-07-18T04:48:11;102234.00;;;20.50
23208;BMP180;11773;52.570;13.052;2022-07-18T04:50:41;102238.00;;;20.50
23208;BMP180;11773;52.570;13.052;2022-07-18T04:53:10;102245.00;;;20.50
23208;BMP180;11773;52.570;13.052;2022-07-18T04:55:40;102242.00;;;20.50
23208;BMP180;11773;52.570;13.052;2022-07-18T04:58:10;102241.00;;;20.50
23208;BMP180;11773;52.570;13.052;2022-07-18T05:00:39;102235.00;;;20.60
23208;BMP180;11773;52.570;13.052;2022-07-18T05:03:09;102237.00;;;20.60
23208;BMP180;11773;52.570;13.052;2022-07-18T05:05:39;102241.00;;;20.60
23208;BMP180;11773;52.570;13.052;2022-07-18T05:08:08;102238.00;;;20.60
23208;BMP180;11773;52.570;13.052;2022-07-18T05:10:40;102245.00;;;20.70
23208;BMP180;11773;52.570;13.052;2022-07-18T05:13:10;102246.00;;;20.70
23208;BMP180;11773;52.570;13.052;2022-07-18T05:15:40;102232.00;;;20.80
23208;BMP180;11773;52.570;13.052;2022-07-18T05:18:09;102245.00;;;20.80
23208;BMP180;11773;52.570;13.052;2022-07-18T05:20:39;102235.00;;;20.90
23208;BMP180;11773;52.570;13.052;2022-07-18T05:23:13;102233.00;;;21.00
23208;BMP180;11773;52.570;13.052;2022-07-18T05:25:42;102232.00;;;21.20
23208;BMP180;11773;52.570;13.052;2022-07-18T05:28:12;102217.00;;;21.40
23208;BMP180;11773;52.570;13.052;2022-07-18T05:30:41;102232.00;;;21.60
23208;BMP180;11773;52.570;13.052;2022-07-18T05:33:11;102228.00;;;21.90
23208;BMP180;11773;52.570;13.052;2022-07-18T05:35:41;102233.00;;;22.20
23208;BMP180;11773;52.570;13.052;2022-07-18T05:38:11;102230.00;;;22.50
23208;BMP180;11773;52.570;13.052;2022-07-18T05:40:40;102231.00;;;22.80
23208;BMP180;11773;52.570;13.052;2022-07-18T05:43:10;102232.00;;;23.00
23208;BMP180;11773;52.570;13.052;2022-07-18T05:45:40;102223.00;;;23.30
23208;BMP180;11773;52.570;13.052;2022-07-18T05:48:09;102237.00;;;23.60
23208;BMP180;11773;52.570;13.052;2022-07-18T05:50:39;102238.00;;;23.90
23208;BMP180;11773;52.570;13.052;2022-07-18T05:53:08;102226.00;;;24.10
23208;BMP180;11773;52.570;13.052;2022-07-18T05:55:38;102245.00;;;24.40
23208;BMP180;11773;52.570;13.052;2022-07-18T05:58:08;102231.00;;;24.70
23208;BMP180;11773;52.570;13.052;2022-07-18T06:00:37;102243.00;;;24.90
23208;BMP180;11773;52.570;13.052;2022-07-18T06:03:07;102246.00;;;25.20
23208;BMP180;11773;52.570;13.052;2022-07-18T06:05:37;102251.00;;;25.50
23208;BMP180;11773;52.570;13.052;2022-07-18T06:08:07;102255.00;;;25.70
23208;BMP180;11773;52.570;13.052;2022-07-18T06:10:37;102260.00;;;25.90
23208;BMP180;11773;52.570;13.052;2022-07-18T06:13:08;102263.00;;;26.20
23208;BMP180;11773;52.570;13.052;2022-07-18T06:15:38;102265.00;;;26.40
23208;BMP180;11773;52.570;13.052;2022-07-18T06:18:07;102261.00;;;26.60
23208;BMP180;11773;52.570;13.052;2022-07-18T06:20:37;102268.00;;;26.90
23208;BMP180;11773;52.570;13.052;2022-07-18T06:23:06;102281.00;;;27.10
23208;BMP180;11773;52.570;13.052;2022-07-18T06:25:36;102286.00;;;27.30
23208;BMP180;11773;52.570;13.052;2022-07-18T06:28:05;102284.00;;;27.50
23208;BMP180;11773;52.570;13.052;2022-07-18T06:30:35;102267.00;;;27.70
23208;BMP180;11773;52.570;13.052;2022-07-18T06:33:05;102272.00;;;27.80
23208;BMP180;11773;52.570;13.052;2022-07-18T06:35:36;102264.00;;;28.00
23208;BMP180;11773;52.570;13.052;2022-07-18T06:38:06;102270.00;;;28.20
23208;BMP180;11773;52.570;13.052;2022-07-18T06:40:35;102253.00;;;28.30
23208;BMP180;11773;52.570;13.052;2022-07-18T06:43:05;102265.00;;;28.50
23208;BMP180;11773;52.570;13.052;2022-07-18T06:45:35;102256.00;;;28.60
23208;BMP180;11773;52.570;13.052;2022-07-18T06:48:05;102256.00;;;28.80
23208;BMP180;11773;52.570;13.052;2022-07-18T06:50:34;102257.00;;;28.90
23208;BMP180;11773;52.570;13.052;2022-07-18T06:53:04;102236.00;;;29.00
23208;BMP180;11773;52.570;13.052;2022-07-18T06:55:33;102231.00;;;29.10
23208;BMP180;11773;52.570;13.052;2022-07-18T06:58:03;102233.00;;;29.30
23208;BMP180;11773;52.570;13.052;2022-07-18T07:00:33;102240.00;;;29.40
23208;BMP180;11773;52.570;13.052;2022-07-18T07:03:03;102234.00;;;29.50
23208;BMP180;11773;52.570;13.052;2022-07-18T07:05:32;102242.00;;;29.60
23208;BMP180;11773;52.570;13.052;2022-07-18T07:08:02;102243.00;;;29.70
23208;BMP180;11773;52.570;13.052;2022-07-18T07:10:31;102234.00;;;29.80
23208;BMP180;11773;52.570;13.052;2022-07-18T07:13:01;102232.00;;;29.90
23208;BMP180;11773;52.570;13.052;2022-07-18T07:15:30;102233.00;;;30.10
23208;BMP180;11773;52.570;13.052;2022-07-18T07:18:00;102231.00;;;30.20
23208;BMP180;11773;52.570;13.052;2022-07-18T07:20:30;102221.00;;;30.30
23208;BMP180;11773;52.570;13.052;2022-07-18T07:22:59;102227.00;;;30.40
23208;BMP180;11773;52.570;13.052;2022-07-18T07:25:30;102223.00;;;30.50
23208;BMP180;11773;52.570;13.052;2022-07-18T07:28:00;102223.00;;;30.60
23208;BMP180;11773;52.570;13.052;2022-07-18T07:30:30;102225.00;;;30.70
23208;BMP180;11773;52.570;13.052;2022-07-18T07:33:02;102228.00;;;30.80
23208;BMP180;11773;52.570;13.052;2022-07-18T07:35:32;102241.00;;;30.90
23208;BMP180;11773;52.570;13.052;2022-07-18T07:38:01;102226.00;;;30.90
23208;BMP180;11773;52.570;13.052;2022-07-18T07:40:31;102235.00;;;31.00
23208;BMP180;11773;52.570;13.052;2022-07-18T07:43:27;102233.00;;;31.10
23208;BMP180;11773;52.570;13.052;2022-07-18T07:45:57;102247.00;;;31.20
23208;BMP180;11773;52.570;13.052;2022-07-18T07:48:27;102249.00;;;31.30
23208;BMP180;11773;52.570;13.052;2022-07-18T07:50:56;102248.00;;;31.30
23208;BMP180;11773;52.570;13.052;2022-07-18T07:53:26;102255.00;;;31.40
23208;BMP180;11773;52.570;13.052;2022-07-18T07:55:56;102249.00;;;31.50
23208;BMP180;11773;52.570;13.052;2022-07-18T07:58:25;102259.00;;;31.60
23208;BMP180;11773;52.570;13.052;2022-07-18T08:00:55;102254.00;;;31.60
23208;BMP180;11773;52.570;13.052;2022-07-18T08:03:25;102253.00;;;31.70
23208;BMP180;11773;52.570;13.052;2022-07-18T08:05:54;102251.00;;;31.80
23208;BMP180;11773;52.570;13.052;2022-07-18T08:08:24;102245.00;;;31.80
23208;BMP180;11773;52.570;13.052;2022-07-18T08:10:54;102238.00;;;31.90
23208;BMP180;11773;52.570;13.052;2022-07-18T08:13:23;102241.00;;;31.90
23208;BMP180;11773;52.570;13.052;2022-07-18T08:15:53;102248.00;;;32.00
23208;BMP180;11773;52.570;13.052;2022-07-18T08:18:22;102242.00;;;32.00
23208;BMP180;11773;52.570;13.052;2022-07-18T08:20:52;102242.00;;;32.00
23208;BMP180;11773;52.570;13.052;2022-07-18T08:23:22;102240.00;;;32.00
23208;BMP180;11773;52.570;13.052;2022-07-18T08:25:51;102238.00;;;32.00
23208;BMP180;11773;52.570;13.052;2022-07-18T08:28:21;102226.00;;;32.00
23208;BMP180;11773;52.570;13.052;2022-07-18T08:30:52;102226.00;;;32.00
23208;BMP180;11773;52.570;13.052;2022-07-18T08:33:22;102233.00;;;32.00
23208;BMP180;11773;52.570;13.052;2022-07-18T08:35:51;102228.00;;;32.00
23208;BMP180;11773;52.570;13.052;2022-07-18T08:38:21;102228.00;;;32.00
23208;BMP180;11773;52.570;13.052;2022-07-18T08:40:53;102232.00;;;32.10
23208;BMP180;11773;52.570;13.052;2022-07-18T08:43:25;102240.00;;;32.10
23208;BMP180;11773;52.570;13.052;2022-07-18T08:46:04;102227.00;;;32.10
23208;BMP180;11773;52.570;13.052;2022-07-18T08:48:35;102234.00;;;32.10
23208;BMP180;11773;52.570;13.052;2022-07-18T08:51:06;102218.00;;;32.10
23208;BMP180;11773;52.570;13.052;2022-07-18T08:53:36;102222.00;;;32.10
23208;BMP180;11773;52.570;13.052;2022-07-18T08:58:42;102226.00;;;32.10
23208;BMP180;11773;52.570;13.052;2022-07-18T09:01:13;102233.00;;;32.20
23208;BMP180;11773;52.570;13.052;2022-07-18T09:03:43;102236.00;;;32.20
23208;BMP180;11773;52.570;13.052;2022-07-18T09:06:14;102237.00;;;32.20
23208;BMP180;11773;52.570;13.052;2022-07-18T09:09:01;102229.00;;;32.20
23208;BMP180;11773;52.570;13.052;2022-07-18T09:11:31;102234.00;;;32.20
23208;BMP180;11773;52.570;13.052;2022-07-18T09:14:02;102224.00;;;32.30
23208;BMP180;11773;52.570;13.052;2022-07-18T09:16:32;102226.00;;;32.30
23208;BMP180;11773;52.570;13.052;2022-07-18T09:19:05;102235.00;;;32.30
23208;BMP180;11773;52.570;13.052;2022-07-18T09:21:36;102232.00;;;32.30
23208;BMP180;11773;52.570;13.052;2022-07-18T09:24:07;102222.00;;;32.30
23208;BMP180;11773;52.570;13.052;2022-07-18T09:26:45;102219.00;;;32.30
23208;BMP180;11773;52.570;13.052;2022-07-18T09:29:19;102227.00;;;32.30
23208;BMP180;11773;52.570;13.052;2022-07-18T09:31:51;102220.00;;;32.30
23208;BMP180;11773;52.570;13.052;2022-07-18T09:34:38;102232.00;;;32.30
23208;BMP180;11773;52.570;13.052;2022-07-18T09:37:14;102223.00;;;32.30
23208;BMP180;11773;52.570;13.052;2022-07-18T09:39:44;102223.00;;;32.40
23208;BMP180;11773;52.570;13.052;2022-07-18T09:42:16;102225.00;;;32.40
23208;BMP180;11773;52.570;13.052;2022-07-18T09:44:59;102231.00;;;32.50
23208;BMP180;11773;52.570;13.052;2022-07-18T09:47:29;102217.00;;;32.50
23208;BMP180;11773;52.570;13.052;2022-07-18T09:49:59;102230.00;;;32.50
23208;BMP180;11773;52.570;13.052;2022-07-18T09:52:28;102226.00;;;32.50
23208;BMP180;11773;52.570;13.052;2022-07-18T09:55:04;102216.00;;;32.60
23208;BMP180;11773;52.570;13.052;2022-07-18T09:57:34;102224.00;;;32.60
23208;BMP180;11773;52.570;13.052;2022-07-18T10:00:06;102222.00;;;32.60
23208;BMP180;11773;52.570;13.052;2022-07-18T10:02:37;102216.00;;;32.60
23208;BMP180;11773;52.570;13.052;2022-07-18T10:05:07;102220.00;;;32.60
23208;BMP180;11773;52.570;13.052;2022-07-18T10:07:38;102210.00;;;32.70
23208;BMP180;11773;52.570;13.052;2022-07-18T10:10:09;102218.00;;;32.70
23208;BMP180;11773;52.570;13.052;2022-07-18T10:12:38;102220.00;;;32.70
23208;BMP180;11773;52.570;13.052;2022-07-18T10:15:09;102223.00;;;32.70
23208;BMP180;11773;52.570;13.052;2022-07-18T10:17:40;102216.00;;;32.70
23208;BMP180;11773;52.570;13.052;2022-07-18T10:20:10;102207.00;;;32.80
23208;BMP180;11773;52.570;13.052;2022-07-18T10:22:42;102209.00;;;32.80
23208;BMP180;11773;52.570;13.052;2022-07-18T10:25:13;102204.00;;;32.80
23208;BMP180;11773;52.570;13.052;2022-07-18T10:27:52;102203.00;;;32.80
23208;BMP180;11773;52.570;13.052;2022-07-18T10:30:34;102212.00;;;32.90
23208;BMP180;11773;52.570;13.052;2022-07-18T10:36:03;102205.00;;;32.90
23208;BMP180;11773;52.570;13.052;2022-07-18T10:38:35;102210.00;;;32.80
23208;BMP180;11773;52.570;13.052;2022-07-18T10:41:11;102198.00;;;32.80
23208;BMP180;11773;52.570;13.052;2022-07-18T10:43:45;102205.00;;;32.80
23208;BMP180;11773;52.570;13.052;2022-07-18T10:46:14;102199.00;;;32.80
23208;BMP180;11773;52.570;13.052;2022-07-18T10:48:50;102206.00;;;32.90
23208;BMP180;11773;52.570;13.052;2022-07-18T10:51:32;102206.00;;;32.90
23208;BMP180;11773;52.570;13.052;2022-07-18T10:59:18;102197.00;;;33.10
23208;BMP180;11773;52.570;13.052;2022-07-18T11:01:56;102205.00;;;33.20
23208;BMP180;11773;52.570;13.052;2022-07-18T11:04:36;102196.00;;;33.20
23208;BMP180;11773;52.570;13.052;2022-07-18T11:07:12;102198.00;;;33.20
23208;BMP180;11773;52.570;13.052;2022-07-18T11:09:48;102178.00;;;33.20
23208;BMP180;11773;52.570;13.052;2022-07-18T11:12:29;102187.00;;;33.20
23208;BMP180;11773;52.570;13.052;2022-07-18T11:18:01;102181.00;;;33.30
23208;BMP180;11773;52.570;13.052;2022-07-18T11:20:44;102182.00;;;33.30
23208;BMP180;11773;52.570;13.052;2022-07-18T11:23:24;102184.00;;;33.40
23208;BMP180;11773;52.570;13.052;2022-07-18T11:25:57;102171.00;;;33.40
23208;BMP180;11773;52.570;13.052;2022-07-18T11:28:28;102189.00;;;33.40
23208;BMP180;11773;52.570;13.052;2022-07-18T11:31:10;102179.00;;;33.40
23208;BMP180;11773;52.570;13.052;2022-07-18T11:33:47;102171.00;;;33.50
23208;BMP180;11773;52.570;13.052;2022-07-18T11:36:22;102164.00;;;33.50
23208;BMP180;11773;52.570;13.052;2022-07-18T11:38:59;102154.00;;;33.50
23208;BMP180;11773;52.570;13.052;2022-07-18T11:41:30;102164.00;;;33.50
23208;BMP180;11773;52.570;13.052;2022-07-18T11:44:00;102149.00;;;33.50
23208;BMP180;11773;52.570;13.052;2022-07-18T11:46:30;102146.00;;;33.50
23208;BMP180;11773;52.570;13.052;2022-07-18T11:49:03;102164.00;;;33.50
23208;BMP180;11773;52.570;13.052;2022-07-18T11:51:43;102161.00;;;33.50
23208;BMP180;11773;52.570;13.052;2022-07-18T11:54:17;102164.00;;;33.60
23208;BMP180;11773;52.570;13.052;2022-07-18T11:56:52;102151.00;;;33.60
23208;BMP180;11773;52.570;13.052;2022-07-18T11:59:23;102146.00;;;33.60
23208;BMP180;11773;52.570;13.052;2022-07-18T12:01:54;102144.00;;;33.60
23208;BMP180;11773;52.570;13.052;2022-07-18T12:04:25;102155.00;;;33.60
23208;BMP180;11773;52.570;13.052;2022-07-18T12:07:23;102138.00;;;33.60
23208;BMP180;11773;52.570;13.052;2022-07-18T12:09:52;102156.00;;;33.60
23208;BMP180;11773;52.570;13.052;2022-07-18T12:12:23;102151.00;;;33.60
23208;BMP180;11773;52.570;13.052;2022-07-18T12:15:02;102131.00;;;33.60
23208;BMP180;11773;52.570;13.052;2022-07-18T12:17:30;102143.00;;;33.60
23208;BMP180;11773;52.570;13.052;2022-07-18T12:20:15;102137.00;;;33.60
23208;BMP180;11773;52.570;13.052;2022-07-18T12:23:06;102132.00;;;33.60
23208;BMP180;11773;52.570;13.052;2022-07-18T12:25:58;102140.00;;;33.60
23208;BMP180;11773;52.570;13.052;2022-07-18T12:28:29;102139.00;;;33.60
23208;BMP180;11773;52.570;13.052;2022-07-18T12:30:59;102129.00;;;33.60
23208;BMP180;11773;52.570;13.052;2022-07-18T12:33:29;102125.00;;;33.70
23208;BMP180;11773;52.570;13.052;2022-07-18T12:36:00;102120.00;;;33.70
23208;BMP180;11773;52.570;13.052;2022-07-18T12:38:30;102109.00;;;33.70
23208;BMP180;11773;52.570;13.052;2022-07-18T12:41:00;102106.00;;;33.80
23208;BMP180;11773;52.570;13.052;2022-07-18T12:43:37;102105.00;;;33.80
23208;BMP180;11773;52.570;13.052;2022-07-18T12:46:09;102109.00;;;33.80
23208;BMP180;11773;52.570;13.052;2022-07-18T12:48:40;102101.00;;;33.80
23208;BMP180;11773;52.570;13.052;2022-07-18T12:51:11;102104.00;;;33.90
23208;BMP180;11773;52.570;13.052;2022-07-18T12:53:43;102104.00;;;33.90
23208;BMP180;11773;52.570;13.052;2022-07-18T12:56:12;102092.00;;;33.90
23208;BMP180;11773;52.570;13.052;2022-07-18T12:58:42;102097.00;;;33.90
23208;BMP180;11773;52.570;13.052;2022-07-18T13:01:12;102103.00;;;33.90
23208;BMP180;11773;52.570;13.052;2022-07-18T13:03:42;102093.00;;;33.90
23208;BMP180;11773;52.570;13.052;2022-07-18T13:06:12;102106.00;;;33.90
23208;BMP180;11773;52.570;13.052;2022-07-18T13:08:43;102092.00;;;33.90
23208;BMP180;11773;52.570;13.052;2022-07-18T13:11:13;102093.00;;;33.90
23208;BMP180;11773;52.570;13.052;2022-07-18T13:13:42;102101.00;;;33.90
23208;BMP180;11773;52.570;13.052;2022-07-18T13:16:12;102088.00;;;33.90
23208;BMP180;11773;52.570;13.052;2022-07-18T13:18:42;102082.00;;;33.90
23208;BMP180;11773;52.570;13.052;2022-07-18T13:21:11;102084.00;;;33.90
23208;BMP180;11773;52.570;13.052;2022-07-18T13:23:41;102093.00;;;34.00
23208;BMP180;11773;52.570;13.052;2022-07-18T13:26:11;102082.00;;;34.00
23208;BMP180;11773;52.570;13.052;2022-07-18T13:28:40;102081.00;;;34.00
23208;BMP180;11773;52.570;13.052;2022-07-18T13:31:10;102079.00;;;34.00
23208;BMP180;11773;52.570;13.052;2022-07-18T13:33:40;102075.00;;;34.10
23208;BMP180;11773;52.570;13.052;2022-07-18T13:36:09;102087.00;;;34.10
23208;BMP180;11773;52.570;13.052;2022-07-18T13:38:39;102081.00;;;34.10
23208;BMP180;11773;52.570;13.052;2022-07-18T13:41:09;102076.00;;;34.10
23208;BMP180;11773;52.570;13.052;2022-07-18T13:43:40;102075.00;;;34.10
23208;BMP180;11773;52.570;13.052;2022-07-18T13:46:12;102081.00;;;34.10
23208;BMP180;11773;52.570;13.052;2022-07-18T13:48:41;102061.00;;;34.10
23208;BMP180;11773;52.570;13.052;2022-07-18T13:51:11;102076.00;;;34.10
23208;BMP180;11773;52.570;13.052;2022-07-18T13:53:41;102074.00;;;34.10
23208;BMP180;11773;52.570;13.052;2022-07-18T13:56:10;102070.00;;;34.20
23208;BMP180;11773;52.570;13.052;2022-07-18T13:58:40;102060.00;;;34.20
23208;BMP180;11773;52.570;13.052;2022-07-18T14:01:11;102064.00;;;34.20
23208;BMP180;11773;52.570;13.052;2022-07-18T14:03:41;102062.00;;;34.30
23208;BMP180;11773;52.570;13.052;2022-07-18T14:06:10;102062.00;;;34.30
23208;BMP180;11773;52.570;13.052;2022-07-18T14:08:40;102059.00;;;34.30
23208;BMP180;11773;52.570;13.052;2022-07-18T14:11:10;102045.00;;;34.30
23208;BMP180;11773;52.570;13.052;2022-07-18T14:13:39;102041.00;;;34.40
23208;BMP180;11773;52.570;13.052;2022-07-18T14:16:09;102040.00;;;34.40
23208;BMP180;11773;52.570;13.052;2022-07-18T14:18:39;102045.00;;;34.40
23208;BMP180;11773;52.570;13.052;2022-07-18T14:21:08;102034.00;;;34.40